Time;durP1;ratioP1;P1;durP2;ratioP2;P2;SDS_P1;SDS_P2;PMS_P1;PMS_P2;Temp;Humidity;BMP_temperature;BMP_pressure;BME280_temperature;BME280_humidity;BME280_pressure;Samples;Min_cycle;Max_cycle;Signal;HPM_P1;HPM_P2
2022/04/17 00:00:13;;;;;;;7.95;5.70;;;7.40;99.90;;;;;;5112230;28;20047;-67
2022/04/17 00:02:39;;;;;;;11.20;5.90;;;7.40;99.90;;;;;;5112486;28;20122;-69
2022/04/17 00:05:06;;;;;;;6.97;5.93;;;7.40;99.90;;;;;;5112323;28;20040;-68
2022/04/17 00:07:33;;;;;;;12.02;7.53;;;7.30;99.90;;;;;;5112281;28;20051;-67
2022/04/17 00:09:59;;;;;;;8.32;6.25;;;7.10;99.90;;;;;;5112268;28;20031;-67
2022/04/17 00:12:25;;;;;;;9.10;6.13;;;7.20;99.90;;;;;;5112453;28;20035;-67
2022/04/17 00:14:51;;;;;;;9.27;5.65;;;7.20;99.90;;;;;;5094312;28;20118;-67
2022/04/17 00:17:17;;;;;;;8.05;5.97;;;7.10;99.90;;;;;;5112346;28;20035;-67
2022/04/17 00:19:43;;;;;;;10.18;5.97;;;7.10;99.90;;;;;;5112006;28;20032;-67
2022/04/17 00:22:08;;;;;;;9.10;6.03;;;7.20;99.90;;;;;;5111986;28;20053;-67
2022/04/17 00:24:34;;;;;;;10.05;6.10;;;7.20;99.90;;;;;;5112232;28;20040;-67
2022/04/17 00:27:00;;;;;;;13.45;6.38;;;7.20;99.90;;;;;;5112133;28;20067;-67
2022/04/17 00:29:29;;;;;;;7.60;5.30;;;7.20;99.90;;;;;;5111859;28;20036;-67
2022/04/17 00:31:58;;;;;;;9.48;5.78;;;7.20;99.90;;;;;;5111890;28;20509;-67
2022/04/17 00:34:25;;;;;;;7.78;5.95;;;7.10;99.90;;;;;;5111823;28;20028;-69
2022/04/17 00:36:50;;;;;;;7.00;5.97;;;7.00;99.90;;;;;;5112015;28;20375;-67
2022/04/17 00:39:16;;;;;;;10.80;6.15;;;7.00;99.90;;;;;;5111736;28;20092;-67
2022/04/17 00:41:42;;;;;;;9.52;6.93;;;6.90;99.90;;;;;;5093794;28;20101;-66
2022/04/17 00:44:12;;;;;;;9.32;6.25;;;6.90;99.90;;;;;;5111945;28;20640;-67
2022/04/17 00:46:41;;;;;;;11.95;6.32;;;7.00;99.90;;;;;;5111721;28;20039;-67
2022/04/17 00:49:09;;;;;;;9.40;6.07;;;7.00;99.90;;;;;;5111322;28;20036;-67
2022/04/17 00:51:36;;;;;;;8.25;6.18;;;7.00;99.90;;;;;;5111574;28;20141;-67
2022/04/17 00:54:08;;;;;;;8.52;6.38;;;7.00;99.90;;;;;;5112130;28;20051;-68
2022/04/17 00:56:34;;;;;;;10.20;6.13;;;7.00;99.90;;;;;;5112126;28;20047;-67
2022/04/17 00:59:11;;;;;;;10.48;6.78;;;6.90;99.90;;;;;;5111523;28;20388;-68
2022/04/17 01:01:37;;;;;;;9.52;6.57;;;6.90;99.90;;;;;;5111715;28;20445;-67
2022/04/17 01:04:04;;;;;;;8.77;6.63;;;6.90;99.90;;;;;;5111602;28;20044;-67
2022/04/17 01:06:31;;;;;;;9.93;6.95;;;6.90;99.90;;;;;;5093221;28;20039;-67
2022/04/17 01:08:58;;;;;;;11.07;6.53;;;6.80;99.90;;;;;;5111210;28;20050;-69
2022/04/17 01:11:24;;;;;;;10.32;6.25;;;6.80;99.90;;;;;;5111441;28;20040;-67
2022/04/17 01:13:52;;;;;;;8.30;6.60;;;6.80;99.90;;;;;;5093274;28;20039;-67
2022/04/17 01:16:18;;;;;;;10.18;6.38;;;6.80;99.90;;;;;;5111253;28;20058;-67
2022/04/17 01:18:56;;;;;;;9.45;6.85;;;6.80;99.90;;;;;;5110841;28;20054;-67
2022/04/17 01:21:23;;;;;;;10.57;6.72;;;6.80;99.90;;;;;;5111359;28;20047;-67
2022/04/17 01:29:18;;;;;;;9.65;7.10;;;6.70;99.90;;;;;;5111050;28;20047;-67
2022/04/17 01:31:45;;;;;;;11.27;7.10;;;6.60;99.90;;;;;;5111316;28;20376;-67
2022/04/17 01:34:13;;;;;;;9.75;7.53;;;6.60;99.90;;;;;;5111266;28;20032;-67
2022/04/17 01:36:38;;;;;;;10.68;6.90;;;6.60;99.90;;;;;;5111172;28;20036;-67
2022/04/17 01:39:04;;;;;;;10.30;6.88;;;6.60;99.90;;;;;;5110843;28;20410;-67
2022/04/17 01:41:30;;;;;;;10.40;6.90;;;6.60;99.90;;;;;;5111338;28;20487;-67
2022/04/17 01:43:55;;;;;;;11.98;6.72;;;6.50;99.90;;;;;;5092893;28;20096;-67
2022/04/17 01:46:22;;;;;;;11.30;7.45;;;6.50;99.90;;;;;;5111132;28;20043;-67
2022/04/17 01:48:47;;;;;;;11.10;6.53;;;6.50;99.90;;;;;;5110775;28;20093;-68
2022/04/17 01:51:13;;;;;;;11.57;7.85;;;6.50;99.90;;;;;;5110896;28;20039;-66
2022/04/17 01:53:38;;;;;;;11.35;6.95;;;6.40;99.90;;;;;;5110853;28;20039;-67
2022/04/17 01:56:04;;;;;;;9.27;7.25;;;6.40;99.90;;;;;;5111104;28;20123;-66
2022/04/17 01:58:30;;;;;;;13.80;8.07;;;6.40;99.90;;;;;;5110668;28;20046;-67
2022/04/17 02:00:55;;;;;;;13.90;7.43;;;6.40;99.90;;;;;;5111092;28;20036;-67
2022/04/17 02:03:21;;;;;;;15.27;6.95;;;6.40;99.90;;;;;;5110888;28;20050;-67
2022/04/17 02:05:46;;;;;;;11.32;7.55;;;6.30;99.90;;;;;;5110856;28;20050;-67
2022/04/17 02:08:13;;;;;;;11.00;7.88;;;6.20;99.90;;;;;;5092537;28;20544;-68
2022/04/17 02:10:39;;;;;;;12.80;7.45;;;6.20;99.90;;;;;;5110869;28;20040;-67
2022/04/17 02:13:04;;;;;;;12.27;7.90;;;6.20;99.90;;;;;;5110900;28;20047;-67
2022/04/17 02:15:30;;;;;;;13.18;7.63;;;6.20;99.90;;;;;;5111031;28;20040;-69
2022/04/17 02:17:55;;;;;;;11.43;7.55;;;6.20;99.90;;;;;;5110925;28;20043;-67
2022/04/17 02:20:21;;;;;;;12.63;8.18;;;6.10;99.90;;;;;;5110448;28;20043;-67
2022/04/17 02:22:47;;;;;;;10.77;7.68;;;6.10;99.90;;;;;;5110623;28;20046;-67
2022/04/17 02:25:12;;;;;;;10.50;7.45;;;6.10;99.90;;;;;;5110851;28;20043;-69
2022/04/17 02:27:38;;;;;;;10.93;7.47;;;6.10;99.90;;;;;;5110890;28;20038;-67
2022/04/17 02:30:04;;;;;;;10.27;6.78;;;6.00;99.90;;;;;;5110539;28;20050;-67
2022/04/17 02:32:30;;;;;;;11.48;7.50;;;6.10;99.90;;;;;;5113141;28;20088;-67
2022/04/17 02:34:56;;;;;;;9.57;6.65;;;6.00;99.90;;;;;;5114208;28;20039;-67
2022/04/17 02:37:21;;;;;;;10.85;7.60;;;6.00;99.90;;;;;;5114153;28;20085;-68
2022/04/17 02:39:47;;;;;;;13.90;7.43;;;5.90;99.90;;;;;;5113768;28;20050;-68
2022/04/17 02:42:13;;;;;;;9.38;7.00;;;6.00;99.90;;;;;;5096042;28;20043;-67
2022/04/17 02:44:38;;;;;;;9.98;6.90;;;6.00;99.90;;;;;;5114178;28;20096;-67
2022/04/17 02:49:48;;;;;;;13.63;8.32;;;5.90;99.90;;;;;;5113668;28;20047;-67
2022/04/17 02:52:14;;;;;;;14.60;8.88;;;5.90;99.90;;;;;;5113787;28;20039;-67
2022/04/17 02:54:41;;;;;;;13.57;7.70;;;5.90;99.90;;;;;;5114015;28;20031;-67
2022/04/17 02:57:07;;;;;;;11.77;7.75;;;5.80;99.90;;;;;;5113997;28;20039;-66
2022/04/17 02:59:32;;;;;;;12.32;7.25;;;5.90;99.90;;;;;;5113573;28;20062;-68
2022/04/17 03:07:28;;;;;;;10.88;7.80;;;5.80;99.90;;;;;;5113491;28;20513;-66
2022/04/17 03:09:54;;;;;;;11.05;7.95;;;5.80;99.90;;;;;;5113457;28;20040;-67
2022/04/17 03:12:20;;;;;;;15.20;8.60;;;5.70;99.90;;;;;;5113427;28;20568;-68
2022/04/17 03:14:46;;;;;;;11.82;8.00;;;5.70;99.90;;;;;;5095462;28;20123;-67
2022/04/17 03:17:12;;;;;;;15.25;7.82;;;5.70;99.90;;;;;;5113372;28;20043;-69
2022/04/17 03:19:37;;;;;;;11.68;7.82;;;5.70;99.90;;;;;;5113134;28;20516;-67
2022/04/17 03:22:04;;;;;;;12.35;8.35;;;5.60;99.90;;;;;;5113495;28;20035;-66
2022/04/17 03:24:31;;;;;;;15.00;8.43;;;5.50;99.90;;;;;;5113299;28;20083;-67
2022/04/17 03:26:57;;;;;;;14.43;8.65;;;5.50;99.90;;;;;;5113369;28;20036;-67
2022/04/17 03:29:22;;;;;;;16.73;8.18;;;5.60;99.90;;;;;;5112892;28;20613;-67
2022/04/17 03:31:48;;;;;;;16.48;8.35;;;5.60;99.90;;;;;;5113431;28;20479;-68
2022/04/17 03:34:14;;;;;;;12.60;8.00;;;5.70;99.90;;;;;;5113216;28;20036;-67
2022/04/17 03:36:40;;;;;;;14.15;8.43;;;5.70;99.90;;;;;;5113303;28;20649;-67
2022/04/17 03:39:06;;;;;;;13.73;8.40;;;5.70;99.90;;;;;;5112897;28;20039;-67
2022/04/17 03:41:32;;;;;;;12.57;8.93;;;5.60;99.90;;;;;;5113133;28;20050;-67
2022/04/17 03:43:57;;;;;;;13.27;8.90;;;5.60;99.90;;;;;;5112599;28;20040;-67
2022/04/17 03:46:23;;;;;;;13.98;8.27;;;5.70;99.90;;;;;;5112680;28;20088;-67
2022/04/17 03:48:48;;;;;;;14.38;8.38;;;5.60;99.90;;;;;;5112661;28;20039;-68
2022/04/17 03:51:14;;;;;;;14.90;7.78;;;5.60;99.90;;;;;;5112882;28;20031;-67
2022/04/17 03:53:40;;;;;;;12.38;8.52;;;5.60;99.90;;;;;;5112627;28;20115;-67
2022/04/17 03:56:05;;;;;;;20.35;9.05;;;5.60;99.90;;;;;;5112674;28;20067;-67
2022/04/17 03:58:31;;;;;;;12.60;7.95;;;5.50;99.90;;;;;;5112205;28;20095;-68
2022/04/17 04:00:56;;;;;;;12.68;8.23;;;5.50;99.90;;;;;;5112517;28;20035;-69
2022/04/17 04:03:22;;;;;;;13.38;8.07;;;5.50;99.90;;;;;;5112627;28;20112;-67
2022/04/17 04:05:47;;;;;;;16.77;8.15;;;5.40;99.90;;;;;;5112511;28;20044;-67
2022/04/17 04:08:13;;;;;;;12.88;7.97;;;5.40;99.90;;;;;;5112568;28;20123;-67
2022/04/17 04:10:38;;;;;;;13.27;7.47;;;5.30;99.90;;;;;;5112267;28;20114;-67
2022/04/17 04:13:04;;;;;;;16.95;8.60;;;5.30;99.90;;;;;;5112253;28;20089;-67
2022/04/17 04:15:30;;;;;;;14.93;9.02;;;5.30;99.90;;;;;;5112279;28;20043;-67
2022/04/17 04:17:56;;;;;;;11.48;7.78;;;5.30;99.90;;;;;;5112444;28;20071;-68
2022/04/17 04:20:21;;;;;;;13.98;8.05;;;5.30;99.90;;;;;;5093722;28;20552;-68
2022/04/17 04:22:47;;;;;;;15.23;8.23;;;5.20;99.90;;;;;;5112181;28;20054;-67
2022/04/17 04:25:12;;;;;;;14.52;7.63;;;5.20;99.90;;;;;;5111465;28;20118;-67
2022/04/17 04:30:22;;;;;;;12.00;8.07;;;5.10;99.90;;;;;;5109335;28;20062;-67
2022/04/17 04:32:56;;;;;;;14.07;8.32;;;5.10;99.90;;;;;;5111811;28;20555;-68
2022/04/17 04:35:22;;;;;;;12.15;7.93;;;4.90;99.90;;;;;;5111517;28;20084;-69
2022/04/17 04:37:48;;;;;;;13.13;7.85;;;4.90;99.90;;;;;;5110962;28;20039;-72
2022/04/17 04:40:15;;;;;;;12.07;7.93;;;5.00;99.90;;;;;;5110931;28;20059;-68
2022/04/17 04:42:41;;;;;;;15.88;7.78;;;5.10;99.90;;;;;;5111707;28;20038;-67
2022/04/17 04:47:51;;;;;;;11.98;7.80;;;5.00;99.90;;;;;;5111830;28;20056;-67
2022/04/17 04:50:16;;;;;;;14.70;7.53;;;4.90;99.90;;;;;;5111426;28;20051;-67
2022/04/17 04:52:42;;;;;;;14.68;8.23;;;4.90;99.90;;;;;;5111579;28;20438;-67
2022/04/17 04:55:08;;;;;;;15.35;8.02;;;4.90;99.90;;;;;;5110984;28;20057;-69
2022/04/17 04:57:36;;;;;;;16.50;9.13;;;4.90;99.90;;;;;;5111673;28;20032;-66
2022/04/17 05:00:07;;;;;;;13.13;7.90;;;5.00;99.90;;;;;;5111156;28;20594;-68
2022/04/17 05:02:34;;;;;;;13.00;8.25;;;5.00;99.90;;;;;;5111467;28;20042;-68
2022/04/17 05:04:59;;;;;;;15.25;8.23;;;5.00;99.90;;;;;;5111508;28;20609;-67
2022/04/17 05:07:25;;;;;;;13.65;8.40;;;5.10;99.90;;;;;;5111371;28;20122;-67
2022/04/17 05:09:51;;;;;;;12.68;7.82;;;5.20;99.90;;;;;;5111395;28;20088;-67
2022/04/17 05:12:16;;;;;;;12.43;8.27;;;5.30;99.90;;;;;;5111594;28;20036;-68
2022/04/17 05:14:44;;;;;;;12.45;8.55;;;5.40;99.90;;;;;;5111513;28;20555;-67
2022/04/17 05:17:09;;;;;;;14.93;9.32;;;5.40;99.90;;;;;;5111398;28;20036;-67
2022/04/17 05:19:35;;;;;;;14.93;8.18;;;5.50;99.90;;;;;;5111168;28;20096;-67
2022/04/17 05:22:02;;;;;;;13.38;8.20;;;5.70;99.90;;;;;;5111175;28;20043;-68
2022/04/17 05:24:28;;;;;;;15.80;8.77;;;6.00;99.90;;;;;;5111434;28;20040;-68
2022/04/17 05:26:53;;;;;;;11.13;8.25;;;6.00;99.90;;;;;;5111367;28;20408;-67
2022/04/17 05:29:19;;;;;;;11.27;7.57;;;6.10;99.90;;;;;;5092675;28;20123;-67
2022/04/17 05:31:47;;;;;;;13.68;8.88;;;6.20;99.90;;;;;;5111236;28;20119;-68
2022/04/17 05:34:13;;;;;;;13.70;8.55;;;6.40;99.90;;;;;;5111112;28;20040;-69
2022/04/17 05:36:38;;;;;;;12.52;8.25;;;6.50;99.90;;;;;;5111126;28;20089;-67
2022/04/17 05:39:05;;;;;;;14.00;8.77;;;6.60;99.90;;;;;;5110999;28;20054;-67
2022/04/17 05:41:32;;;;;;;15.32;8.23;;;6.80;99.90;;;;;;5111205;28;20731;-67
2022/04/17 05:43:58;;;;;;;11.93;8.27;;;6.90;99.90;;;;;;5092801;28;20086;-68
2022/04/17 05:46:27;;;;;;;13.25;8.30;;;7.10;99.90;;;;;;5111138;28;20036;-67
2022/04/17 05:48:52;;;;;;;15.18;8.18;;;7.20;99.90;;;;;;5110824;28;20380;-68
2022/04/17 05:51:18;;;;;;;12.88;8.15;;;7.30;99.90;;;;;;5110973;28;20153;-67
2022/04/17 05:53:43;;;;;;;12.30;9.05;;;7.40;99.90;;;;;;5110932;28;20514;-68
2022/04/17 05:56:09;;;;;;;18.10;9.00;;;7.30;99.90;;;;;;5093104;28;20051;-67
2022/04/17 05:58:35;;;;;;;13.95;8.40;;;7.50;99.90;;;;;;5110599;28;20051;-68
2022/04/17 06:01:02;;;;;;;14.50;8.60;;;7.60;99.90;;;;;;5111031;28;20043;-67
2022/04/17 06:03:28;;;;;;;14.18;8.82;;;7.70;99.90;;;;;;5110939;28;20406;-68
2022/04/17 06:05:53;;;;;;;14.60;9.35;;;7.80;99.90;;;;;;5112547;28;20036;-69
2022/04/17 06:08:19;;;;;;;15.45;8.68;;;7.90;99.90;;;;;;5114932;28;20207;-67
2022/04/17 06:10:45;;;;;;;17.88;9.23;;;8.00;99.90;;;;;;5114560;28;20031;-67
2022/04/17 06:13:10;;;;;;;12.38;9.00;;;8.10;99.90;;;;;;5114781;28;20043;-67
2022/04/17 06:15:36;;;;;;;15.48;9.05;;;8.10;99.90;;;;;;5114694;28;20039;-68
2022/04/17 06:18:01;;;;;;;18.30;9.55;;;8.00;99.90;;;;;;5114676;28;20411;-68
2022/04/17 06:20:27;;;;;;;11.45;8.60;;;8.10;99.90;;;;;;5114333;28;20048;-67
2022/04/17 06:22:52;;;;;;;14.02;8.90;;;8.20;99.90;;;;;;5114690;28;20096;-68
2022/04/17 06:25:18;;;;;;;16.08;9.00;;;8.20;99.90;;;;;;5114379;28;20053;-68
2022/04/17 06:27:46;;;;;;;18.73;10.43;;;8.30;99.90;;;;;;5114574;28;20038;-67
2022/04/17 06:30:13;;;;;;;14.20;8.50;;;8.40;99.90;;;;;;5114133;28;20097;-67
2022/04/17 06:32:40;;;;;;;14.50;9.45;;;8.50;99.90;;;;;;5114300;28;20063;-69
2022/04/17 06:35:07;;;;;;;13.40;9.05;;;8.50;99.90;;;;;;5114228;28;20047;-67
2022/04/17 06:37:47;;;;;;;17.20;10.18;;;8.50;99.90;;;;;;5114368;28;20077;-68
2022/04/17 06:40:21;;;;;;;15.50;9.10;;;8.60;99.90;;;;;;5095810;28;20047;-67
2022/04/17 06:42:48;;;;;;;15.13;9.18;;;8.60;99.90;;;;;;5114084;28;20040;-68
2022/04/17 06:45:15;;;;;;;16.05;8.88;;;8.70;99.90;;;;;;5113997;28;20040;-68
2022/04/17 06:47:40;;;;;;;13.68;8.88;;;8.70;99.90;;;;;;5113855;28;20114;-68
2022/04/17 06:50:06;;;;;;;14.70;9.27;;;8.90;99.90;;;;;;5095682;28;20131;-72
2022/04/17 06:52:32;;;;;;;13.38;9.38;;;9.00;99.90;;;;;;5093053;28;20046;-69
2022/04/17 06:54:58;;;;;;;16.38;9.52;;;9.10;99.90;;;;;;5113071;28;20084;-68
2022/04/17 06:57:28;;;;;;;14.73;8.93;;;9.00;99.90;;;;;;5113149;28;20099;-68
2022/04/17 06:59:53;;;;;;;13.57;9.45;;;9.10;99.90;;;;;;5112468;28;20123;-68
2022/04/17 07:02:19;;;;;;;16.27;9.55;;;9.30;99.90;;;;;;5113223;28;20122;-68
2022/04/17 07:04:44;;;;;;;13.38;8.82;;;9.20;99.90;;;;;;5097450;28;20542;-68
2022/04/17 07:07:10;;;;;;;12.07;8.20;;;9.40;99.90;;;;;;5110791;28;20052;-68
2022/04/17 07:09:35;;;;;;;15.77;8.43;;;9.40;99.90;;;;;;5094812;28;20047;-69
2022/04/17 07:12:01;;;;;;;11.75;8.30;;;9.50;99.90;;;;;;5113690;28;20109;-68
2022/04/17 07:14:26;;;;;;;13.50;9.00;;;9.60;99.90;;;;;;5113349;28;20781;-68
2022/04/17 07:16:52;;;;;;;13.07;8.85;;;9.60;99.90;;;;;;5113125;28;20050;-69
2022/04/17 07:19:17;;;;;;;11.90;8.85;;;9.80;99.90;;;;;;5114045;28;20044;-70
2022/04/17 07:21:43;;;;;;;12.93;8.50;;;9.90;99.90;;;;;;5113876;28;20039;-69
2022/04/17 07:24:08;;;;;;;14.77;8.68;;;9.90;99.90;;;;;;5113853;28;20089;-69
2022/04/17 07:26:34;;;;;;;11.90;8.32;;;10.10;99.90;;;;;;5113426;28;20443;-68
2022/04/17 07:28:59;;;;;;;11.15;7.78;;;10.10;99.90;;;;;;5112917;28;20438;-69
2022/04/17 07:31:25;;;;;;;10.90;8.05;;;10.20;99.90;;;;;;5113068;28;20038;-68
2022/04/17 07:33:51;;;;;;;13.25;8.40;;;10.20;99.90;;;;;;5113305;28;20453;-68
2022/04/17 07:36:16;;;;;;;11.43;8.27;;;10.20;99.90;;;;;;5113235;28;20464;-68
2022/04/17 07:38:42;;;;;;;12.52;7.78;;;10.40;99.90;;;;;;5112924;28;20482;-68
2022/04/17 07:41:07;;;;;;;12.57;8.52;;;10.50;99.90;;;;;;5113094;28;20039;-68
2022/04/17 07:43:33;;;;;;;12.25;7.80;;;10.70;99.90;;;;;;5112857;28;20106;-67
2022/04/17 07:45:58;;;;;;;10.50;7.38;;;10.70;99.90;;;;;;5112839;28;20549;-68
2022/04/17 07:48:24;;;;;;;15.00;8.27;;;10.80;99.90;;;;;;5112927;28;20036;-69
2022/04/17 07:50:52;;;;;;;11.95;8.15;;;10.80;99.40;;;;;;5112947;28;20040;-67
2022/04/17 07:53:18;;;;;;;11.48;7.72;;;10.90;99.60;;;;;;5112861;28;20110;-68
2022/04/17 07:55:44;;;;;;;9.13;7.18;;;11.00;99.30;;;;;;5112950;28;20067;-67
2022/04/17 07:58:14;;;;;;;10.55;7.15;;;11.00;97.50;;;;;;5112472;28;20035;-68
2022/04/17 08:00:44;;;;;;;12.80;7.45;;;11.00;94.00;;;;;;5112387;28;20398;-68
2022/04/17 08:05:55;;;;;;;10.88;7.63;;;11.10;94.10;;;;;;5112578;28;20055;-73
2022/04/17 08:08:20;;;;;;;11.13;7.18;;;11.20;97.60;;;;;;5093931;28;20048;-73
2022/04/17 08:10:46;;;;;;;11.65;7.07;;;11.20;90.50;;;;;;5093846;28;20403;-72
2022/04/17 08:13:12;;;;;;;9.50;6.93;;;11.20;93.50;;;;;;5112356;28;20038;-72
2022/04/17 08:15:38;;;;;;;10.88;7.60;;;11.40;95.20;;;;;;5112351;28;20051;-72
2022/04/17 08:18:04;;;;;;;9.88;6.70;;;11.40;92.80;;;;;;5093919;28;20047;-73
2022/04/17 08:20:30;;;;;;;12.00;7.47;;;11.50;97.50;;;;;;5087327;28;20077;-72
2022/04/17 08:22:55;;;;;;;9.32;6.53;;;11.50;90.00;;;;;;5103373;28;20031;-72
2022/04/17 08:25:21;;;;;;;9.90;6.60;;;11.60;94.10;;;;;;5093764;28;20040;-72
2022/04/17 08:27:48;;;;;;;8.20;5.70;;;11.60;91.10;;;;;;5094061;28;20127;-72
2022/04/17 08:30:22;;;;;;;10.18;6.60;;;11.60;87.20;;;;;;5093555;28;20036;-72
2022/04/17 08:32:48;;;;;;;10.88;6.72;;;11.70;88.60;;;;;;5097406;28;20031;-73
2022/04/17 08:35:13;;;;;;;9.02;6.43;;;11.80;81.20;;;;;;5091794;28;20032;-72
2022/04/17 08:37:39;;;;;;;9.77;6.18;;;11.80;88.80;;;;;;5091126;28;20038;-72
2022/04/17 08:40:05;;;;;;;10.80;6.65;;;11.90;90.80;;;;;;5084338;28;20050;-72
2022/04/17 08:42:31;;;;;;;10.23;6.43;;;11.80;76.10;;;;;;5084500;28;20035;-72
2022/04/17 08:44:57;;;;;;;10.23;6.38;;;12.00;79.70;;;;;;5084543;28;20067;-72
2022/04/17 08:47:23;;;;;;;10.60;6.43;;;12.10;77.50;;;;;;5073740;28;20076;-73
2022/04/17 08:49:50;;;;;;;12.63;6.63;;;12.00;67.80;;;;;;5073004;28;20523;-74
2022/04/17 08:52:17;;;;;;;7.38;5.63;;;12.00;78.30;;;;;;5073211;28;20044;-73
2022/04/17 08:54:46;;;;;;;12.13;6.70;;;12.10;87.30;;;;;;5072927;28;20595;-71
2022/04/17 08:57:12;;;;;;;9.52;6.70;;;12.30;92.70;;;;;;5072930;28;20069;-70
2022/04/17 08:59:38;;;;;;;11.77;6.35;;;12.30;73.00;;;;;;5090909;28;20125;-74
2022/04/17 09:02:10;;;;;;;10.13;5.97;;;12.30;84.30;;;;;;5091029;28;20040;-74
2022/04/17 09:04:42;;;;;;;12.32;5.22;;;12.40;83.10;;;;;;5091027;28;20051;-72
2022/04/17 09:07:10;;;;;;;11.18;6.38;;;12.50;98.80;;;;;;5096328;28;20048;-69
2022/04/17 09:09:48;;;;;;;10.23;6.43;;;12.50;70.90;;;;;;5090107;28;20039;-68
2022/04/17 09:12:21;;;;;;;10.25;6.35;;;12.40;71.00;;;;;;5091269;28;20032;-68
2022/04/17 09:14:47;;;;;;;7.93;5.57;;;12.50;80.10;;;;;;5072917;28;20476;-69
2022/04/17 09:17:13;;;;;;;8.65;6.05;;;12.50;69.00;;;;;;5091153;28;20051;-69
2022/04/17 09:19:38;;;;;;;10.15;6.25;;;12.70;85.90;;;;;;5072894;28;20040;-69
2022/04/17 09:22:06;;;;;;;8.45;5.95;;;12.70;66.70;;;;;;5091137;28;20051;-69
2022/04/17 09:24:35;;;;;;;10.82;6.30;;;12.70;81.20;;;;;;5091029;28;20058;-69
2022/04/17 09:27:01;;;;;;;8.18;5.85;;;12.80;82.30;;;;;;5090955;28;20127;-69
2022/04/17 09:29:29;;;;;;;6.43;5.57;;;12.80;79.00;;;;;;5090709;28;20111;-70
2022/04/17 09:31:59;;;;;;;11.20;5.93;;;12.80;74.70;;;;;;5090849;28;20039;-68
2022/04/17 09:34:40;;;;;;;9.48;6.10;;;13.00;77.10;;;;;;5091030;28;20111;-68
2022/04/17 09:37:14;;;;;;;7.70;5.10;;;13.00;72.90;;;;;;5091050;28;20063;-68
2022/04/17 09:39:40;;;;;;;8.07;5.30;;;13.10;58.50;;;;;;5090598;28;20115;-69
2022/04/17 09:42:07;;;;;;;7.28;5.45;;;13.10;57.30;;;;;;5076896;28;20039;-68
2022/04/17 09:44:47;;;;;;;6.93;5.47;;;13.20;59.30;;;;;;5076609;28;20058;-68
2022/04/17 09:47:26;;;;;;;11.55;5.57;;;13.00;57.60;;;;;;5095029;28;20048;-68
2022/04/17 09:49:56;;;;;;;5.97;4.78;;;13.10;58.40;;;;;;5094694;28;20101;-69
2022/04/17 09:52:29;;;;;;;9.80;5.43;;;13.10;57.70;;;;;;5094791;28;20045;-69
2022/04/17 09:54:55;;;;;;;8.65;5.00;;;13.20;59.50;;;;;;5094654;28;20040;-68
2022/04/17 09:57:29;;;;;;;8.32;5.88;;;13.20;55.80;;;;;;5094979;28;20518;-68
2022/04/17 10:00:18;;;;;;;9.18;4.85;;;13.20;56.00;;;;;;5094336;28;20044;-69
2022/04/17 10:02:45;;;;;;;8.18;5.35;;;13.40;55.90;;;;;;5076402;28;20051;-69
2022/04/17 10:05:13;;;;;;;6.75;5.18;;;13.50;58.50;;;;;;5094475;28;20040;-68
2022/04/17 10:07:45;;;;;;;7.50;5.35;;;13.40;60.30;;;;;;5094649;28;20044;-68
2022/04/17 10:10:12;;;;;;;8.25;5.95;;;13.40;58.90;;;;;;5094041;28;20487;-68
2022/04/17 10:12:46;;;;;;;7.03;5.53;;;13.60;59.10;;;;;;5094411;28;20047;-69
2022/04/17 10:15:12;;;;;;;12.82;5.75;;;13.50;56.70;;;;;;5094444;28;20043;-69
2022/04/17 10:17:40;;;;;;;8.57;5.35;;;13.60;59.00;;;;;;5094272;28;20048;-69
2022/04/17 10:20:08;;;;;;;9.25;5.82;;;13.70;59.50;;;;;;5093908;28;20508;-68
2022/04/17 10:22:38;;;;;;;8.90;5.70;;;13.80;56.40;;;;;;5094262;28;20054;-69
2022/04/17 10:25:06;;;;;;;8.32;5.97;;;13.70;54.30;;;;;;5076363;28;20488;-68
2022/04/17 10:27:43;;;;;;;9.02;5.63;;;13.70;57.50;;;;;;5093967;28;20036;-69
2022/04/17 10:30:23;;;;;;;6.72;5.03;;;13.90;57.90;;;;;;5093850;28;20043;-69
2022/04/17 10:33:23;;;;;;;7.55;5.53;;;13.90;54.70;;;;;;5094282;28;20118;-69
2022/04/17 10:36:19;;;;;;;6.43;5.10;;;13.90;53.80;;;;;;5094113;28;20075;-69
2022/04/17 10:39:01;;;;;;;7.07;5.20;;;14.10;53.40;;;;;;5093553;28;20511;-69
2022/04/17 10:41:27;;;;;;;8.82;4.90;;;14.00;53.30;;;;;;5094126;28;20040;-70
2022/04/17 10:43:56;;;;;;;8.48;5.03;;;14.10;55.10;;;;;;5093874;28;20047;-70
2022/04/17 10:46:22;;;;;;;6.40;4.78;;;14.10;55.50;;;;;;5093694;28;20044;-69
2022/04/17 10:48:58;;;;;;;8.88;5.65;;;14.30;54.80;;;;;;5075461;28;20119;-68
2022/04/17 10:51:29;;;;;;;7.05;5.05;;;14.20;52.90;;;;;;5093048;28;20032;-69
2022/04/17 10:54:06;;;;;;;9.73;4.78;;;14.30;54.10;;;;;;5074903;28;20036;-69
2022/04/17 10:56:56;;;;;;;8.93;5.50;;;14.20;54.10;;;;;;5093625;28;20051;-69
2022/04/17 10:59:30;;;;;;;7.78;4.97;;;14.30;52.10;;;;;;5093066;28;20040;-68
2022/04/17 11:02:03;;;;;;;8.02;4.78;;;14.40;53.30;;;;;;5075385;28;20150;-68
2022/04/17 11:04:50;;;;;;;6.93;4.90;;;14.60;52.10;;;;;;5093483;28;20055;-70
2022/04/17 11:07:15;;;;;;;6.43;4.55;;;14.50;52.40;;;;;;5093417;28;20085;-69
2022/04/17 11:09:46;;;;;;;7.65;4.63;;;14.50;52.90;;;;;;5093065;28;20044;-68
2022/04/17 11:12:17;;;;;;;6.53;4.55;;;14.60;51.80;;;;;;5093243;28;20044;-69
2022/04/17 11:15:01;;;;;;;7.47;4.97;;;14.80;50.60;;;;;;5093393;28;20101;-68
2022/04/17 11:17:28;;;;;;;5.95;4.38;;;14.80;48.80;;;;;;5093242;28;20492;-69
2022/04/17 11:19:58;;;;;;;8.48;4.57;;;14.80;48.60;;;;;;5092949;28;20080;-70
2022/04/17 11:22:33;;;;;;;8.00;3.88;;;14.70;47.90;;;;;;5092748;28;20047;-69
2022/04/17 11:25:00;;;;;;;7.13;4.30;;;15.00;50.10;;;;;;5093291;28;20040;-68
2022/04/17 11:27:31;;;;;;;5.90;4.25;;;14.80;45.60;;;;;;5093008;28;20085;-69
2022/04/17 11:29:58;;;;;;;6.80;4.95;;;14.90;47.80;;;;;;5092653;28;20115;-69
2022/04/17 11:32:26;;;;;;;7.45;4.70;;;14.90;47.20;;;;;;5092926;28;20101;-71
2022/04/17 11:34:55;;;;;;;6.68;4.47;;;15.10;48.60;;;;;;5092744;28;20036;-69
2022/04/17 11:37:25;;;;;;;5.65;4.20;;;15.00;48.80;;;;;;5092896;28;20441;-69
2022/04/17 11:39:52;;;;;;;9.98;4.53;;;15.10;49.70;;;;;;5092671;28;20118;-69
2022/04/17 11:42:18;;;;;;;7.63;4.88;;;15.10;47.60;;;;;;5092694;28;20574;-68
2022/04/17 11:44:45;;;;;;;6.13;4.95;;;15.10;47.70;;;;;;5092956;28;20510;-68
2022/04/17 11:47:18;;;;;;;7.70;4.53;;;15.20;47.20;;;;;;5092564;28;20051;-69
2022/04/17 11:49:44;;;;;;;;;;;15.10;48.90;;;;;;5092668;28;20114;-69
2022/04/17 11:52:11;;;;;;;8.10;5.40;;;15.30;48.70;;;;;;5092500;28;19916;-69
2022/04/17 11:54:36;;;;;;;6.50;5.15;;;15.30;48.80;;;;;;5092585;28;20072;-69
2022/04/17 11:57:02;;;;;;;9.65;4.97;;;15.40;49.50;;;;;;5092605;28;20134;-68
2022/04/17 11:59:28;;;;;;;8.70;5.38;;;15.40;46.20;;;;;;5092124;28;20146;-69
2022/04/17 12:02:10;;;;;;;7.93;5.05;;;15.50;49.50;;;;;;5092381;28;20063;-68
2022/04/17 12:04:36;;;;;;;7.50;4.87;;;15.50;47.90;;;;;;5092010;28;20515;-69
2022/04/17 12:07:02;;;;;;;9.93;6.00;;;15.60;49.10;;;;;;5092249;28;20365;-69
2022/04/17 12:09:29;;;;;;;7.47;4.80;;;15.70;48.70;;;;;;5091967;28;20044;-69
2022/04/17 12:11:55;;;;;;;7.82;4.82;;;15.70;47.50;;;;;;5092171;28;20044;-69
2022/04/17 12:14:31;;;;;;;7.47;5.55;;;15.80;48.40;;;;;;5091920;28;20530;-69
2022/04/17 12:16:58;;;;;;;7.82;5.32;;;15.70;46.50;;;;;;5073831;28;20123;-70
2022/04/17 12:19:27;;;;;;;7.30;4.95;;;15.60;47.30;;;;;;5091861;28;20391;-69
2022/04/17 12:21:53;;;;;;;8.75;5.70;;;15.80;48.10;;;;;;5091780;28;20044;-69
2022/04/17 12:24:19;;;;;;;8.98;4.72;;;15.70;49.20;;;;;;5091716;28;20547;-69
2022/04/17 12:26:46;;;;;;;8.75;5.07;;;15.70;48.80;;;;;;5091790;28;20044;-69
2022/04/17 12:29:12;;;;;;;8.93;5.07;;;15.80;46.80;;;;;;5091380;28;20512;-69
2022/04/17 12:31:38;;;;;;;8.75;5.25;;;15.80;47.40;;;;;;5091873;28;20036;-69
2022/04/17 12:34:14;;;;;;;8.35;5.28;;;16.00;47.30;;;;;;5091759;28;20070;-68
2022/04/17 12:36:43;;;;;;;7.25;5.07;;;16.00;46.00;;;;;;5091676;28;20087;-69
2022/04/17 12:39:09;;;;;;;8.05;5.03;;;15.90;48.10;;;;;;5091359;28;20089;-68
2022/04/17 12:41:37;;;;;;;9.15;5.00;;;16.00;47.50;;;;;;5091463;28;20442;-69
2022/04/17 12:44:03;;;;;;;8.65;4.90;;;15.90;45.30;;;;;;5073323;28;20047;-69
2022/04/17 12:46:31;;;;;;;7.00;5.18;;;15.90;45.00;;;;;;5091562;28;20047;-68
2022/04/17 12:49:07;;;;;;;7.32;4.90;;;16.10;46.00;;;;;;5091114;28;20039;-68
2022/04/17 12:51:33;;;;;;;9.43;4.53;;;16.40;50.40;;;;;;5056302;28;20177;-68
2022/04/17 12:54:00;;;;;;;5.97;4.18;;;16.50;47.00;;;;;;5091286;28;20047;-72
2022/04/17 12:56:27;;;;;;;6.68;5.03;;;16.80;46.50;;;;;;5073136;28;20051;-74
2022/04/17 12:58:57;;;;;;;7.40;5.22;;;16.60;45.80;;;;;;5072628;28;20040;-74
2022/04/17 13:01:28;;;;;;;9.75;5.43;;;16.60;45.40;;;;;;5073083;28;20060;-74
2022/04/17 13:04:07;;;;;;;8.20;4.80;;;16.70;46.20;;;;;;5056647;28;20035;-74
2022/04/17 13:06:32;;;;;;;9.82;4.72;;;16.80;43.50;;;;;;5073012;28;20499;-74
2022/04/17 13:09:06;;;;;;;6.82;4.40;;;16.80;44.30;;;;;;5072744;28;20040;-74